sensor_id;sensor_type;location;lat;lon;timestamp;pressure;altitude;pressure_sealevel;temperature;humidity
12969;BME280;6549;53.128;8.182;2023-04-27T00:02:22;101750.13;;;1.97;100.00
12969;BME280;6549;53.128;8.182;2023-04-27T00:05:22;101744.00;;;1.91;100.00
12969;BME280;6549;53.128;8.182;2023-04-27T00:08:23;101747.84;;;1.90;100.00
12969;BME280;6549;53.128;8.182;2023-04-27T00:11:23;101751.31;;;1.91;100.00
12969;BME280;6549;53.128;8.182;2023-04-27T00:14:24;101756.25;;;1.89;100.00
12969;BME280;6549;53.128;8.182;2023-04-27T00:17:27;101756.56;;;1.87;100.00
12969;BME280;6549;53.128;8.182;2023-04-27T00:20:28;101753.13;;;1.81;100.00
12969;BME280;6549;53.128;8.182;2023-04-27T00:23:28;101757.56;;;1.77;100.00
12969;BME280;6549;53.128;8.182;2023-04-27T00:26:28;101760.06;;;1.74;100.00
12969;BME280;6549;53.128;8.182;2023-04-27T00:29:29;101760.16;;;1.69;100.00
12969;BME280;6549;53.128;8.182;2023-04-27T00:32:29;101756.97;;;1.67;100.00
12969;BME280;6549;53.128;8.182;2023-04-27T00:35:31;101759.16;;;1.65;100.00
12969;BME280;6549;53.128;8.182;2023-04-27T00:38:34;101766.81;;;1.63;100.00
12969;BME280;6549;53.128;8.182;2023-04-27T00:41:38;101767.09;;;1.61;100.00
12969;BME280;6549;53.128;8.182;2023-04-27T00:44:38;101777.84;;;1.66;100.00
12969;BME280;6549;53.128;8.182;2023-04-27T00:47:39;101772.63;;;1.70;100.00
12969;BME280;6549;53.128;8.182;2023-04-27T00:50:40;101779.66;;;1.71;100.00
12969;BME280;6549;53.128;8.182;2023-04-27T00:53:41;101783.56;;;1.65;100.00
12969;BME280;6549;53.128;8.182;2023-04-27T00:56:42;101775.03;;;1.58;100.00
12969;BME280;6549;53.128;8.182;2023-04-27T00:59:42;101779.66;;;1.57;100.00
12969;BME280;6549;53.128;8.182;2023-04-27T01:02:46;101775.03;;;1.58;100.00
12969;BME280;6549;53.128;8.182;2023-04-27T01:05:48;101780.94;;;1.60;100.00
12969;BME280;6549;53.128;8.182;2023-04-27T01:08:48;101797.72;;;1.62;100.00
12969;BME280;6549;53.128;8.182;2023-04-27T01:11:49;101793.38;;;1.61;100.00
12969;BME280;6549;53.128;8.182;2023-04-27T01:14:49;101795.00;;;1.62;100.00
12969;BME280;6549;53.128;8.182;2023-04-27T01:17:59;101795.81;;;1.62;100.00
12969;BME280;6549;53.128;8.182;2023-04-27T01:21:00;101796.69;;;1.58;100.00
12969;BME280;6549;53.128;8.182;2023-04-27T01:24:00;101797.31;;;1.55;100.00
12969;BME280;6549;53.128;8.182;2023-04-27T01:27:03;101797.69;;;1.48;100.00
12969;BME280;6549;53.128;8.182;2023-04-27T01:30:06;101803.41;;;1.47;100.00
12969;BME280;6549;53.128;8.182;2023-04-27T01:33:07;101798.59;;;1.44;100.00
12969;BME280;6549;53.128;8.182;2023-04-27T01:36:08;101804.91;;;1.39;100.00
12969;BME280;6549;53.128;8.182;2023-04-27T01:39:08;101797.66;;;1.34;100.00
12969;BME280;6549;53.128;8.182;2023-04-27T01:42:09;101797.25;;;1.27;100.00
12969;BME280;6549;53.128;8.182;2023-04-27T01:45:10;101804.13;;;1.20;100.00
12969;BME280;6549;53.128;8.182;2023-04-27T01:48:10;101804.25;;;1.15;100.00
12969;BME280;6549;53.128;8.182;2023-04-27T01:51:11;101798.59;;;1.11;100.00
12969;BME280;6549;53.128;8.182;2023-04-27T01:54:11;101798.78;;;1.01;100.00
12969;BME280;6549;53.128;8.182;2023-04-27T01:57:11;101800.47;;;0.97;100.00
12969;BME280;6549;53.128;8.182;2023-04-27T02:00:13;101798.34;;;0.94;100.00
12969;BME280;6549;53.128;8.182;2023-04-27T02:03:14;101806.84;;;0.87;100.00
12969;BME280;6549;53.128;8.182;2023-04-27T02:06:14;101799.31;;;0.84;100.00
12969;BME280;6549;53.128;8.182;2023-04-27T02:09:15;101799.09;;;0.81;100.00
12969;BME280;6549;53.128;8.182;2023-04-27T02:12:15;101799.69;;;0.78;100.00
12969;BME280;6549;53.128;8.182;2023-04-27T02:15:15;101806.41;;;0.80;100.00
12969;BME280;6549;53.128;8.182;2023-04-27T02:18:16;101806.41;;;0.80;100.00
12969;BME280;6549;53.128;8.182;2023-04-27T02:21:16;101811.13;;;0.75;100.00
12969;BME280;6549;53.128;8.182;2023-04-27T02:24:17;101808.47;;;0.70;100.00
12969;BME280;6549;53.128;8.182;2023-04-27T02:27:17;101800.66;;;0.68;100.00
12969;BME280;6549;53.128;8.182;2023-04-27T02:30:18;101806.88;;;0.69;100.00
12969;BME280;6549;53.128;8.182;2023-04-27T02:33:19;101803.63;;;0.67;100.00
12969;BME280;6549;53.128;8.182;2023-04-27T02:36:20;101803.63;;;0.67;100.00
12969;BME280;6549;53.128;8.182;2023-04-27T02:39:20;101800.94;;;0.67;100.00
12969;BME280;6549;53.128;8.182;2023-04-27T02:42:21;101799.34;;;0.66;100.00
12969;BME280;6549;53.128;8.182;2023-04-27T02:45:21;101808.84;;;0.63;100.00
12969;BME280;6549;53.128;8.182;2023-04-27T02:48:21;101804.91;;;0.56;100.00
12969;BME280;6549;53.128;8.182;2023-04-27T02:51:22;101801.75;;;0.49;100.00
12969;BME280;6549;53.128;8.182;2023-04-27T02:54:22;101799.63;;;0.45;100.00
12969;BME280;6549;53.128;8.182;2023-04-27T02:57:23;101806.94;;;0.45;100.00
12969;BME280;6549;53.128;8.182;2023-04-27T03:00:24;101809.94;;;0.43;100.00
12969;BME280;6549;53.128;8.182;2023-04-27T03:03:24;101811.38;;;0.36;100.00
12969;BME280;6549;53.128;8.182;2023-04-27T03:06:25;101812.25;;;0.31;100.00
12969;BME280;6549;53.128;8.182;2023-04-27T03:09:25;101815.81;;;0.27;100.00
12969;BME280;6549;53.128;8.182;2023-04-27T03:12:25;101817.81;;;0.21;100.00
12969;BME280;6549;53.128;8.182;2023-04-27T03:15:26;101815.66;;;0.18;100.00
12969;BME280;6549;53.128;8.182;2023-04-27T03:18:26;101820.50;;;0.21;100.00
12969;BME280;6549;53.128;8.182;2023-04-27T03:21:26;101816.69;;;0.22;100.00
12969;BME280;6549;53.128;8.182;2023-04-27T03:24:27;101817.22;;;0.24;100.00
12969;BME280;6549;53.128;8.182;2023-04-27T03:27:28;101812.41;;;0.21;100.00
12969;BME280;6549;53.128;8.182;2023-04-27T03:30:28;101816.19;;;0.20;100.00
12969;BME280;6549;53.128;8.182;2023-04-27T03:33:29;101810.50;;;0.22;100.00
12969;BME280;6549;53.128;8.182;2023-04-27T03:36:29;101822.41;;;0.21;100.00
12969;BME280;6549;53.128;8.182;2023-04-27T03:39:31;101815.91;;;0.22;100.00
12969;BME280;6549;53.128;8.182;2023-04-27T03:42:31;101817.22;;;0.24;100.00
12969;BME280;6549;53.128;8.182;2023-04-27T03:45:32;101804.22;;;0.26;100.00
12969;BME280;6549;53.128;8.182;2023-04-27T03:48:32;101809.06;;;0.29;100.00
12969;BME280;6549;53.128;8.182;2023-04-27T03:51:32;101808.78;;;0.31;100.00
12969;BME280;6549;53.128;8.182;2023-04-27T03:54:33;101807.38;;;0.33;100.00
12969;BME280;6549;53.128;8.182;2023-04-27T03:57:33;101807.38;;;0.33;100.00
12969;BME280;6549;53.128;8.182;2023-04-27T04:00:33;101812.25;;;0.31;100.00
12969;BME280;6549;53.128;8.182;2023-04-27T04:03:34;101808.47;;;0.32;100.00
12969;BME280;6549;53.128;8.182;2023-04-27T04:06:34;101808.91;;;0.39;100.00
12969;BME280;6549;53.128;8.182;2023-04-27T04:09:35;101807.31;;;0.38;100.00
12969;BME280;6549;53.128;8.182;2023-04-27T04:12:35;101806.78;;;0.36;100.00
12969;BME280;6549;53.128;8.182;2023-04-27T04:15:36;101811.09;;;0.37;100.00
12969;BME280;6549;53.128;8.182;2023-04-27T04:18:36;101807.09;;;0.35;100.00
12969;BME280;6549;53.128;8.182;2023-04-27T04:21:36;101799.78;;;0.35;100.00
12969;BME280;6549;53.128;8.182;2023-04-27T04:24:37;101811.31;;;0.41;100.00
12969;BME280;6549;53.128;8.182;2023-04-27T04:27:39;101818.00;;;0.49;100.00
12969;BME280;6549;53.128;8.182;2023-04-27T04:30:40;101810.38;;;0.51;100.00
12969;BME280;6549;53.128;8.182;2023-04-27T04:33:40;101821.19;;;0.51;100.00
12969;BME280;6549;53.128;8.182;2023-04-27T04:36:40;101815.28;;;0.49;100.00
12969;BME280;6549;53.128;8.182;2023-04-27T04:39:41;101819.56;;;0.50;100.00
12969;BME280;6549;53.128;8.182;2023-04-27T04:42:41;101819.56;;;0.50;100.00
12969;BME280;6549;53.128;8.182;2023-04-27T04:45:42;101816.38;;;0.48;100.00
12969;BME280;6549;53.128;8.182;2023-04-27T04:48:42;101819.28;;;0.51;100.00
12969;BME280;6549;53.128;8.182;2023-04-27T04:51:44;101817.31;;;0.57;100.00
12969;BME280;6549;53.128;8.182;2023-04-27T04:54:44;101824.50;;;0.66;100.00
12969;BME280;6549;53.128;8.182;2023-04-27T04:57:45;101826.53;;;0.74;100.00
12969;BME280;6549;53.128;8.182;2023-04-27T05:00:45;101827.69;;;0.87;100.00
12969;BME280;6549;53.128;8.182;2023-04-27T05:03:46;101831.28;;;1.01;100.00
12969;BME280;6549;53.128;8.182;2023-04-27T05:06:46;101830.94;;;1.21;100.00
12969;BME280;6549;53.128;8.182;2023-04-27T05:09:46;101836.00;;;1.55;100.00
12969;BME280;6549;53.128;8.182;2023-04-27T05:12:47;101840.47;;;1.92;100.00
12969;BME280;6549;53.128;8.182;2023-04-27T05:15:47;101837.66;;;2.24;100.00
12969;BME280;6549;53.128;8.182;2023-04-27T05:18:47;101842.00;;;2.61;100.00
12969;BME280;6549;53.128;8.182;2023-04-27T05:21:48;101843.97;;;2.83;100.00
12969;BME280;6549;53.128;8.182;2023-04-27T05:24:48;101830.28;;;3.10;100.00
12969;BME280;6549;53.128;8.182;2023-04-27T05:27:48;101834.25;;;3.27;100.00
12969;BME280;6549;53.128;8.182;2023-04-27T05:30:49;101837.22;;;3.47;100.00
12969;BME280;6549;53.128;8.182;2023-04-27T05:33:49;101845.41;;;3.87;100.00
12969;BME280;6549;53.128;8.182;2023-04-27T05:36:49;101846.47;;;4.17;100.00
12969;BME280;6549;53.128;8.182;2023-04-27T05:39:49;101845.13;;;4.45;100.00
12969;BME280;6549;53.128;8.182;2023-04-27T05:42:50;101850.59;;;4.79;100.00
12969;BME280;6549;53.128;8.182;2023-04-27T05:45:51;101858.31;;;5.12;100.00
12969;BME280;6549;53.128;8.182;2023-04-27T05:48:52;101856.19;;;5.34;100.00
12969;BME280;6549;53.128;8.182;2023-04-27T05:51:52;101861.06;;;5.67;100.00
12969;BME280;6549;53.128;8.182;2023-04-27T05:54:52;101865.88;;;5.78;100.00
12969;BME280;6549;53.128;8.182;2023-04-27T05:57:53;101861.22;;;5.88;100.00
12969;BME280;6549;53.128;8.182;2023-04-27T06:00:54;101873.28;;;6.16;100.00
12969;BME280;6549;53.128;8.182;2023-04-27T06:03:55;101877.41;;;6.30;100.00
12969;BME280;6549;53.128;8.182;2023-04-27T06:07:00;101877.53;;;6.63;100.00
12969;BME280;6549;53.128;8.182;2023-04-27T06:10:03;101886.28;;;6.98;100.00
12969;BME280;6549;53.128;8.182;2023-04-27T06:13:04;101881.47;;;7.16;100.00
12969;BME280;6549;53.128;8.182;2023-04-27T06:16:04;101890.78;;;7.36;100.00
12969;BME280;6549;53.128;8.182;2023-04-27T06:19:05;101893.13;;;7.58;100.00
12969;BME280;6549;53.128;8.182;2023-04-27T06:22:05;101885.22;;;7.77;100.00
12969;BME280;6549;53.128;8.182;2023-04-27T06:25:06;101887.31;;;8.04;100.00
12969;BME280;6549;53.128;8.182;2023-04-27T06:28:07;101892.00;;;8.16;100.00
12969;BME280;6549;53.128;8.182;2023-04-27T06:31:07;101890.16;;;8.20;100.00
12969;BME280;6549;53.128;8.182;2023-04-27T06:34:07;101891.34;;;8.31;100.00
12969;BME280;6549;53.128;8.182;2023-04-27T06:37:17;101893.03;;;8.60;100.00
12969;BME280;6549;53.128;8.182;2023-04-27T06:40:17;101888.81;;;8.75;100.00
12969;BME280;6549;53.128;8.182;2023-04-27T06:43:18;101895.63;;;8.93;100.00
12969;BME280;6549;53.128;8.182;2023-04-27T06:46:24;101894.09;;;9.35;100.00
12969;BME280;6549;53.128;8.182;2023-04-27T06:49:25;101890.78;;;9.58;100.00
12969;BME280;6549;53.128;8.182;2023-04-27T06:52:25;101886.75;;;9.83;100.00
12969;BME280;6549;53.128;8.182;2023-04-27T06:55:26;101894.56;;;10.12;100.00
12969;BME280;6549;53.128;8.182;2023-04-27T06:58:33;101894.41;;;10.36;100.00
12969;BME280;6549;53.128;8.182;2023-04-27T07:01:33;101887.44;;;10.58;100.00
12969;BME280;6549;53.128;8.182;2023-04-27T07:04:33;101886.47;;;10.66;100.00
12969;BME280;6549;53.128;8.182;2023-04-27T07:07:35;101880.66;;;10.87;100.00
12969;BME280;6549;53.128;8.182;2023-04-27T07:10:36;101887.97;;;10.99;100.00
12969;BME280;6549;53.128;8.182;2023-04-27T07:13:36;101887.44;;;10.74;100.00
12969;BME280;6549;53.128;8.182;2023-04-27T07:16:37;101884.00;;;10.96;100.00
12969;BME280;6549;53.128;8.182;2023-04-27T07:19:38;101893.78;;;11.32;100.00
12969;BME280;6549;53.128;8.182;2023-04-27T07:22:38;101891.88;;;11.36;99.01
12969;BME280;6549;53.128;8.182;2023-04-27T07:25:39;101888.53;;;11.46;96.61
12969;BME280;6549;53.128;8.182;2023-04-27T07:28:39;101893.81;;;11.74;100.00
12969;BME280;6549;53.128;8.182;2023-04-27T07:31:39;101891.19;;;12.04;100.00
12969;BME280;6549;53.128;8.182;2023-04-27T07:34:40;101891.97;;;12.27;94.61
12969;BME280;6549;53.128;8.182;2023-04-27T07:37:40;101888.13;;;12.32;81.22
12969;BME280;6549;53.128;8.182;2023-04-27T07:40:40;101881.69;;;12.24;84.68
12969;BME280;6549;53.128;8.182;2023-04-27T07:43:41;101883.84;;;12.34;83.17
12969;BME280;6549;53.128;8.182;2023-04-27T07:46:41;101882.38;;;12.18;78.53
12969;BME280;6549;53.128;8.182;2023-04-27T07:49:42;101892.19;;;11.50;79.56
12969;BME280;6549;53.128;8.182;2023-04-27T07:52:44;101896.78;;;11.65;83.69
12969;BME280;6549;53.128;8.182;2023-04-27T07:55:45;101887.81;;;12.14;81.05
12969;BME280;6549;53.128;8.182;2023-04-27T07:58:57;101882.66;;;12.35;68.98
12969;BME280;6549;53.128;8.182;2023-04-27T08:02:06;101879.31;;;12.75;76.36
12969;BME280;6549;53.128;8.182;2023-04-27T08:05:28;101875.56;;;12.60;69.79
12969;BME280;6549;53.128;8.182;2023-04-27T08:08:38;101868.72;;;12.51;69.20
12969;BME280;6549;53.128;8.182;2023-04-27T08:12:05;101864.91;;;12.89;70.61
12969;BME280;6549;53.128;8.182;2023-04-27T08:15:19;101868.44;;;13.16;66.33
12969;BME280;6549;53.128;8.182;2023-04-27T08:18:24;101870.81;;;12.87;63.46
12969;BME280;6549;53.128;8.182;2023-04-27T08:22:00;101879.78;;;13.40;63.93
12969;BME280;6549;53.128;8.182;2023-04-27T08:25:47;101870.59;;;13.66;57.80
12969;BME280;6549;53.128;8.182;2023-04-27T08:28:54;101868.66;;;13.70;59.60
12969;BME280;6549;53.128;8.182;2023-04-27T08:32:04;101872.53;;;13.62;56.07
12969;BME280;6549;53.128;8.182;2023-04-27T08:35:21;101874.47;;;13.58;59.98
12969;BME280;6549;53.128;8.182;2023-04-27T08:38:39;101868.13;;;13.58;59.83
12969;BME280;6549;53.128;8.182;2023-04-27T08:41:53;101873.69;;;13.61;59.36
12969;BME280;6549;53.128;8.182;2023-04-27T08:45:00;101872.97;;;14.12;59.53
12969;BME280;6549;53.128;8.182;2023-04-27T08:48:00;101882.13;;;14.70;62.68
12969;BME280;6549;53.128;8.182;2023-04-27T08:51:02;101885.97;;;15.31;59.46
12969;BME280;6549;53.128;8.182;2023-04-27T08:54:06;101898.00;;;15.78;53.49
12969;BME280;6549;53.128;8.182;2023-04-27T08:57:12;101898.44;;;14.90;53.04
12969;BME280;6549;53.128;8.182;2023-04-27T09:00:13;101895.84;;;14.09;54.53
12969;BME280;6549;53.128;8.182;2023-04-27T09:03:24;101890.66;;;13.26;56.95
12969;BME280;6549;53.128;8.182;2023-04-27T09:06:29;101891.09;;;13.02;59.09
12969;BME280;6549;53.128;8.182;2023-04-27T09:09:30;101897.03;;;12.74;57.56
12969;BME280;6549;53.128;8.182;2023-04-27T09:12:30;101902.44;;;12.41;56.55
12969;BME280;6549;53.128;8.182;2023-04-27T09:15:40;101895.72;;;12.15;57.51
12969;BME280;6549;53.128;8.182;2023-04-27T09:18:42;101900.09;;;11.94;60.14
12969;BME280;6549;53.128;8.182;2023-04-27T09:21:42;101895.97;;;11.65;61.53
12969;BME280;6549;53.128;8.182;2023-04-27T09:24:51;101897.00;;;11.38;61.72
12969;BME280;6549;53.128;8.182;2023-04-27T09:27:53;101902.91;;;11.36;62.77
12969;BME280;6549;53.128;8.182;2023-04-27T09:30:58;101902.38;;;11.11;64.40
12969;BME280;6549;53.128;8.182;2023-04-27T09:33:58;101896.16;;;11.14;64.89
12969;BME280;6549;53.128;8.182;2023-04-27T09:36:59;101904.84;;;11.16;65.66
12969;BME280;6549;53.128;8.182;2023-04-27T09:40:01;101901.66;;;11.14;65.12
12969;BME280;6549;53.128;8.182;2023-04-27T09:43:02;101896.44;;;11.09;65.59
12969;BME280;6549;53.128;8.182;2023-04-27T09:46:03;101898.00;;;11.87;66.26
12969;BME280;6549;53.128;8.182;2023-04-27T09:49:03;101897.06;;;12.48;60.59
12969;BME280;6549;53.128;8.182;2023-04-27T09:52:04;101893.59;;;13.11;61.15
12969;BME280;6549;53.128;8.182;2023-04-27T09:55:08;101891.13;;;14.13;59.96
12969;BME280;6549;53.128;8.182;2023-04-27T10:01:45;101885.97;;;14.55;50.97
12969;BME280;6549;53.128;8.182;2023-04-27T10:05:19;101893.38;;;13.97;51.33
12969;BME280;6549;53.128;8.182;2023-04-27T10:08:23;101891.53;;;13.34;51.50
12969;BME280;6549;53.128;8.182;2023-04-27T10:11:39;101889.34;;;12.87;53.08
12969;BME280;6549;53.128;8.182;2023-04-27T10:14:50;101882.88;;;12.49;51.83
12969;BME280;6549;53.128;8.182;2023-04-27T10:17:51;101881.19;;;12.97;51.99
12969;BME280;6549;53.128;8.182;2023-04-27T10:21:10;101886.19;;;13.85;50.17
12969;BME280;6549;53.128;8.182;2023-04-27T10:24:11;101878.78;;;14.47;50.35
12969;BME280;6549;53.128;8.182;2023-04-27T10:31:13;101877.09;;;13.84;47.05
12969;BME280;6549;53.128;8.182;2023-04-27T10:34:20;101881.81;;;13.47;49.04
12969;BME280;6549;53.128;8.182;2023-04-27T10:37:21;101878.94;;;13.06;50.38
12969;BME280;6549;53.128;8.182;2023-04-27T10:40:31;101874.03;;;13.56;49.46
12969;BME280;6549;53.128;8.182;2023-04-27T10:43:33;101875.72;;;14.08;48.99
12969;BME280;6549;53.128;8.182;2023-04-27T10:46:34;101863.84;;;14.55;49.83
12969;BME280;6549;53.128;8.182;2023-04-27T10:50:01;101868.00;;;14.90;50.07
12969;BME280;6549;53.128;8.182;2023-04-27T10:53:03;101868.59;;;14.55;48.59
12969;BME280;6549;53.128;8.182;2023-04-27T10:56:08;101867.91;;;14.21;48.37
12969;BME280;6549;53.128;8.182;2023-04-27T10:59:12;101867.69;;;14.36;46.00
12969;BME280;6549;53.128;8.182;2023-04-27T11:02:16;101862.81;;;14.23;44.75
12969;BME280;6549;53.128;8.182;2023-04-27T11:09:27;101849.81;;;13.42;45.77
12969;BME280;6549;53.128;8.182;2023-04-27T11:12:31;101852.94;;;13.78;47.06
12969;BME280;6549;53.128;8.182;2023-04-27T11:16:06;101848.16;;;14.19;46.70
12969;BME280;6549;53.128;8.182;2023-04-27T11:19:18;101838.44;;;14.35;47.04
12969;BME280;6549;53.128;8.182;2023-04-27T11:22:33;101841.03;;;14.72;46.74
12969;BME280;6549;53.128;8.182;2023-04-27T11:25:48;101851.31;;;14.72;44.23
12969;BME280;6549;53.128;8.182;2023-04-27T11:29:06;101848.25;;;14.91;45.19
12969;BME280;6549;53.128;8.182;2023-04-27T11:32:29;101844.56;;;15.66;45.93
12969;BME280;6549;53.128;8.182;2023-04-27T11:35:42;101846.91;;;15.57;42.41
12969;BME280;6549;53.128;8.182;2023-04-27T11:38:45;101837.81;;;15.53;45.22
12969;BME280;6549;53.128;8.182;2023-04-27T11:42:26;101851.19;;;15.44;43.81
12969;BME280;6549;53.128;8.182;2023-04-27T11:45:36;101851.47;;;15.04;44.01
12969;BME280;6549;53.128;8.182;2023-04-27T11:48:44;101849.59;;;14.53;43.86
12969;BME280;6549;53.128;8.182;2023-04-27T11:52:04;101842.69;;;14.29;44.58
12969;BME280;6549;53.128;8.182;2023-04-27T11:55:20;101844.59;;;14.18;44.75
12969;BME280;6549;53.128;8.182;2023-04-27T11:58:21;101849.03;;;13.82;45.43
12969;BME280;6549;53.128;8.182;2023-04-27T12:01:21;101853.69;;;13.71;45.24
12969;BME280;6549;53.128;8.182;2023-04-27T12:04:22;101851.28;;;13.70;44.87
12969;BME280;6549;53.128;8.182;2023-04-27T12:07:22;101843.03;;;14.21;45.49
12969;BME280;6549;53.128;8.182;2023-04-27T12:10:23;101846.78;;;14.43;45.22
12969;BME280;6549;53.128;8.182;2023-04-27T12:13:24;101857.38;;;14.33;45.22
12969;BME280;6549;53.128;8.182;2023-04-27T12:16:24;101849.75;;;14.20;45.04
12969;BME280;6549;53.128;8.182;2023-04-27T12:19:31;101847.00;;;14.23;45.41
12969;BME280;6549;53.128;8.182;2023-04-27T12:22:31;101848.72;;;15.11;48.59
12969;BME280;6549;53.128;8.182;2023-04-27T12:25:47;101851.53;;;15.32;42.69
12969;BME280;6549;53.128;8.182;2023-04-27T12:28:47;101848.88;;;14.63;43.13
12969;BME280;6549;53.128;8.182;2023-04-27T12:31:51;101844.97;;;14.71;44.48
12969;BME280;6549;53.128;8.182;2023-04-27T12:34:52;101849.88;;;15.03;46.17
12969;BME280;6549;53.128;8.182;2023-04-27T12:37:52;101856.59;;;15.02;43.75
12969;BME280;6549;53.128;8.182;2023-04-27T12:40:53;101845.09;;;14.96;45.16
12969;BME280;6549;53.128;8.182;2023-04-27T12:43:53;101849.13;;;15.13;45.57
12969;BME280;6549;53.128;8.182;2023-04-27T12:46:57;101844.72;;;15.05;44.66
12969;BME280;6549;53.128;8.182;2023-04-27T12:49:57;101839.44;;;14.68;45.15
12969;BME280;6549;53.128;8.182;2023-04-27T12:52:58;101847.75;;;14.78;45.23
12969;BME280;6549;53.128;8.182;2023-04-27T12:56:00;101855.94;;;14.57;44.96
12969;BME280;6549;53.128;8.182;2023-04-27T12:59:01;101854.75;;;14.55;45.49
12969;BME280;6549;53.128;8.182;2023-04-27T13:02:02;101853.16;;;14.54;45.30
12969;BME280;6549;53.128;8.182;2023-04-27T13:05:02;101856.94;;;14.97;45.97
12969;BME280;6549;53.128;8.182;2023-04-27T13:08:06;101856.59;;;15.05;44.59
12969;BME280;6549;53.128;8.182;2023-04-27T13:11:07;101853.44;;;15.00;44.78
12969;BME280;6549;53.128;8.182;2023-04-27T13:14:07;101844.22;;;14.78;44.78
12969;BME280;6549;53.128;8.182;2023-04-27T13:17:08;101839.75;;;14.56;45.57
12969;BME280;6549;53.128;8.182;2023-04-27T13:20:09;101845.81;;;14.82;45.13
12969;BME280;6549;53.128;8.182;2023-04-27T13:23:10;101823.91;;;14.53;44.88
12969;BME280;6549;53.128;8.182;2023-04-27T13:26:10;101839.44;;;14.71;46.37
12969;BME280;6549;53.128;8.182;2023-04-27T13:29:11;101832.72;;;14.72;46.00
12969;BME280;6549;53.128;8.182;2023-04-27T13:32:11;101829.00;;;14.47;47.33
12969;BME280;6549;53.128;8.182;2023-04-27T13:35:11;101831.59;;;14.88;48.88
12969;BME280;6549;53.128;8.182;2023-04-27T13:38:12;101828.75;;;14.70;45.94
12969;BME280;6549;53.128;8.182;2023-04-27T13:41:18;101822.84;;;14.75;46.50
12969;BME280;6549;53.128;8.182;2023-04-27T13:44:18;101812.47;;;14.51;44.79
12969;BME280;6549;53.128;8.182;2023-04-27T13:47:19;101805.41;;;14.60;46.00
12969;BME280;6549;53.128;8.182;2023-04-27T13:50:19;101804.69;;;14.77;45.03
12969;BME280;6549;53.128;8.182;2023-04-27T13:53:20;101803.56;;;14.93;46.07
12969;BME280;6549;53.128;8.182;2023-04-27T13:56:24;101812.59;;;14.75;45.09
12969;BME280;6549;53.128;8.182;2023-04-27T13:59:24;101805.34;;;14.53;45.65
12969;BME280;6549;53.128;8.182;2023-04-27T14:02:29;101802.81;;;14.34;46.19
12969;BME280;6549;53.128;8.182;2023-04-27T14:05:47;101801.66;;;13.80;46.24
12969;BME280;6549;53.128;8.182;2023-04-27T14:08:50;101800.47;;;13.81;47.43
12969;BME280;6549;53.128;8.182;2023-04-27T14:11:50;101793.38;;;13.80;47.63
12969;BME280;6549;53.128;8.182;2023-04-27T14:15:04;101784.97;;;13.66;46.37
12969;BME280;6549;53.128;8.182;2023-04-27T14:18:06;101781.91;;;13.78;48.25
12969;BME280;6549;53.128;8.182;2023-04-27T14:21:07;101783.03;;;13.70;48.89
12969;BME280;6549;53.128;8.182;2023-04-27T14:24:37;101791.44;;;13.84;48.61
12969;BME280;6549;53.128;8.182;2023-04-27T14:27:55;101785.03;;;13.77;49.31
12969;BME280;6549;53.128;8.182;2023-04-27T14:30:56;101781.94;;;13.85;49.68
12969;BME280;6549;53.128;8.182;2023-04-27T14:33:59;101789.88;;;13.90;49.21
12969;BME280;6549;53.128;8.182;2023-04-27T14:36:59;101789.03;;;13.79;48.98
12969;BME280;6549;53.128;8.182;2023-04-27T14:40:01;101795.88;;;13.52;50.11
12969;BME280;6549;53.128;8.182;2023-04-27T14:43:03;101793.81;;;13.42;48.90
12969;BME280;6549;53.128;8.182;2023-04-27T14:46:04;101790.47;;;13.22;49.69
12969;BME280;6549;53.128;8.182;2023-04-27T14:49:04;101785.13;;;13.06;50.25
12969;BME280;6549;53.128;8.182;2023-04-27T14:52:14;101788.97;;;12.98;51.31
12969;BME280;6549;53.128;8.182;2023-04-27T14:55:19;101781.66;;;12.80;52.10
12969;BME280;6549;53.128;8.182;2023-04-27T14:58:20;101786.94;;;12.62;53.78
12969;BME280;6549;53.128;8.182;2023-04-27T15:01:21;101772.31;;;12.58;52.96
12969;BME280;6549;53.128;8.182;2023-04-27T15:04:22;101777.44;;;12.56;54.38
12969;BME280;6549;53.128;8.182;2023-04-27T15:07:23;101774.38;;;12.65;53.38
12969;BME280;6549;53.128;8.182;2023-04-27T15:10:24;101778.25;;;12.60;54.30
12969;BME280;6549;53.128;8.182;2023-04-27T15:13:26;101776.47;;;12.45;55.29
12969;BME280;6549;53.128;8.182;2023-04-27T15:19:30;101778.81;;;12.43;54.83
12969;BME280;6549;53.128;8.182;2023-04-27T15:22:30;101782.03;;;12.48;55.89
12969;BME280;6549;53.128;8.182;2023-04-27T15:25:31;101780.78;;;12.42;55.77
12969;BME280;6549;53.128;8.182;2023-04-27T15:28:31;101778.66;;;12.32;56.38
12969;BME280;6549;53.128;8.182;2023-04-27T15:31:32;101781.66;;;12.20;56.41
12969;BME280;6549;53.128;8.182;2023-04-27T15:34:33;101778.78;;;12.13;56.25
12969;BME280;6549;53.128;8.182;2023-04-27T15:37:34;101776.00;;;12.13;58.06
12969;BME280;6549;53.128;8.182;2023-04-27T15:40:35;101776.84;;;12.17;57.87
12969;BME280;6549;53.128;8.182;2023-04-27T15:43:36;101777.25;;;12.15;57.36
12969;BME280;6549;53.128;8.182;2023-04-27T15:46:36;101767.38;;;12.14;57.75
12969;BME280;6549;53.128;8.182;2023-04-27T15:49:36;101775.97;;;12.09;56.66
12969;BME280;6549;53.128;8.182;2023-04-27T15:52:37;101772.00;;;12.07;58.31
12969;BME280;6549;53.128;8.182;2023-04-27T15:55:37;101769.38;;;11.91;58.02
12969;BME280;6549;53.128;8.182;2023-04-27T15:58:37;101770.31;;;11.99;59.49
12969;BME280;6549;53.128;8.182;2023-04-27T16:01:39;101773.69;;;12.15;58.68
12969;BME280;6549;53.128;8.182;2023-04-27T16:04:39;101773.13;;;12.02;59.83
12969;BME280;6549;53.128;8.182;2023-04-27T16:07:41;101767.16;;;12.00;59.54
12969;BME280;6549;53.128;8.182;2023-04-27T16:10:42;101763.25;;;12.01;61.02
12969;BME280;6549;53.128;8.182;2023-04-27T16:13:42;101766.84;;;12.05;59.84
12969;BME280;6549;53.128;8.182;2023-04-27T16:16:43;101761.34;;;12.05;60.73
12969;BME280;6549;53.128;8.182;2023-04-27T16:19:45;101753.94;;;12.09;60.04
12969;BME280;6549;53.128;8.182;2023-04-27T16:22:45;101750.84;;;12.14;59.34
12969;BME280;6549;53.128;8.182;2023-04-27T16:25:45;101740.78;;;11.99;59.85